createdAt,value
2023-05-09T00:01:31.271Z,22.85
2023-05-09T00:04:35.394Z,28.57
2023-05-09T00:07:38.267Z,24.57
2023-05-09T00:10:40.881Z,24.95
2023-05-09T00:13:44.089Z,22.85
2023-05-09T00:16:46.924Z,27.17
2023-05-09T00:19:51.520Z,27.40
2023-05-09T00:22:55.299Z,27.83
2023-05-09T00:25:58.051Z,26.57
2023-05-09T00:29:00.565Z,29.85
2023-05-09T00:32:03.720Z,25.95
2023-05-09T00:35:09.921Z,54.20
2023-05-09T00:38:12.477Z,27.47
2023-05-09T00:41:15.038Z,29.02
2023-05-09T00:44:17.619Z,26.00
2023-05-09T00:47:24.138Z,28.30
2023-05-09T00:50:28.307Z,25.77
2023-05-09T00:53:31.074Z,26.17
2023-05-09T00:56:33.640Z,30.35
2023-05-09T00:59:36.155Z,28.52
2023-05-09T01:02:38.770Z,33.05
2023-05-09T01:05:48.301Z,28.25
2023-05-09T01:08:57.609Z,37.53
2023-05-09T01:12:08.380Z,28.97
2023-05-09T01:15:13.802Z,34.63
2023-05-09T01:18:32.204Z,32.70
2023-05-09T01:21:36.605Z,29.27
2023-05-09T01:24:57.215Z,28.40
2023-05-09T01:28:09.081Z,32.70
2023-05-09T01:31:13.586Z,31.57
2023-05-09T01:34:17.748Z,31.30
2023-05-09T01:37:25.537Z,30.20
2023-05-09T01:40:32.206Z,28.90
2023-05-09T01:43:35.716Z,33.53
2023-05-09T01:46:40.587Z,32.20
2023-05-09T01:49:44.284Z,31.27
2023-05-09T01:52:48.956Z,31.47
2023-05-09T01:55:52.256Z,30.73
2023-05-09T01:58:57.214Z,36.28
2023-05-09T02:02:01.349Z,36.03
2023-05-09T02:05:04.320Z,32.93
2023-05-09T02:08:07.298Z,31.98
2023-05-09T02:11:09.864Z,32.92
2023-05-09T02:14:12.385Z,36.35
2023-05-09T02:17:17.028Z,31.67
2023-05-09T02:20:19.718Z,30.60
2023-05-09T02:23:22.388Z,32.92
2023-05-09T02:26:25.780Z,31.33
2023-05-09T02:32:35.261Z,29.60
2023-05-09T02:35:38.227Z,32.63
2023-05-09T02:38:42.147Z,31.85
2023-05-09T02:41:49.270Z,27.63
2023-05-09T02:44:51.956Z,30.77
2023-05-09T02:47:55.968Z,30.98
2023-05-09T02:50:58.687Z,32.97
2023-05-09T02:54:01.281Z,30.88
2023-05-09T02:57:03.978Z,30.85
2023-05-09T03:00:09.452Z,36.17
2023-05-09T03:03:13.627Z,30.50
2023-05-09T03:06:16.325Z,32.10
2023-05-09T03:09:18.825Z,33.45
2023-05-09T03:12:21.303Z,29.60
2023-05-09T03:15:24.524Z,27.50
2023-05-09T03:18:28.425Z,28.25
2023-05-09T03:21:31.910Z,30.03
2023-05-09T03:27:37.075Z,30.77
2023-05-09T03:30:39.672Z,27.92
2023-05-09T03:33:43.640Z,29.98
2023-05-09T03:36:46.238Z,33.30
2023-05-09T03:39:48.864Z,31.20
2023-05-09T03:42:51.458Z,33.30
2023-05-09T03:45:54.355Z,33.40
2023-05-09T03:48:58.289Z,38.15
2023-05-09T03:52:00.835Z,32.97
2023-05-09T03:55:03.411Z,33.45
2023-05-09T03:58:06.246Z,40.03
2023-05-09T04:01:08.855Z,31.10
2023-05-09T04:04:13.076Z,29.13
2023-05-09T04:07:15.714Z,34.20
2023-05-09T04:10:18.500Z,36.25
2023-05-09T04:13:21.351Z,32.20
2023-05-09T04:16:24.044Z,32.85
2023-05-09T04:19:27.952Z,35.80
2023-05-09T04:22:30.594Z,33.00
2023-05-09T04:25:34.508Z,32.35
2023-05-09T04:28:37.090Z,29.97
2023-05-09T04:31:39.832Z,35.35
2023-05-09T04:34:43.794Z,32.90
2023-05-09T04:37:46.508Z,32.63
2023-05-09T04:40:48.991Z,31.15
2023-05-09T04:43:51.836Z,29.70
2023-05-09T04:46:55.082Z,27.65
2023-05-09T04:49:59.041Z,29.38
2023-05-09T04:53:01.610Z,30.53
2023-05-09T04:56:04.195Z,34.63
2023-05-09T04:59:07.022Z,30.70
2023-05-09T05:02:09.537Z,31.30
2023-05-09T05:05:13.621Z,27.52
2023-05-09T05:08:16.255Z,30.53
2023-05-09T05:11:19.134Z,25.08
2023-05-09T05:14:22.115Z,26.27
2023-05-09T05:17:24.864Z,31.20
2023-05-09T05:20:28.973Z,23.77
2023-05-09T05:23:31.539Z,25.87
2023-05-09T05:26:34.088Z,25.50
2023-05-09T05:29:36.582Z,26.95
2023-05-09T05:32:39.281Z,26.50
2023-05-09T05:35:43.214Z,25.83
2023-05-09T05:38:45.867Z,27.60
2023-05-09T05:41:48.424Z,28.27
2023-05-09T05:44:51.170Z,29.67
2023-05-09T05:47:54.447Z,27.63
2023-05-09T05:54:01.432Z,32.43
2023-05-09T05:57:04.045Z,24.92
2023-05-09T06:00:10.437Z,28.05
2023-05-09T06:03:14.339Z,26.23
2023-05-09T06:06:18.381Z,23.17
2023-05-09T06:09:20.862Z,27.97
2023-05-09T06:12:23.577Z,30.52
2023-05-09T06:15:26.173Z,24.30
2023-05-09T06:18:29.204Z,22.92
2023-05-09T06:21:34.166Z,22.85
2023-05-09T06:24:36.799Z,24.40
2023-05-09T06:27:39.338Z,26.75
2023-05-09T06:30:41.861Z,22.33
2023-05-09T06:33:44.381Z,22.55
2023-05-09T06:36:48.650Z,26.65
2023-05-09T06:39:51.537Z,22.10
2023-05-09T06:42:54.077Z,25.80
2023-05-09T06:45:56.804Z,25.75
2023-05-09T06:49:01.637Z,22.48
2023-05-09T06:52:05.857Z,29.93
2023-05-09T06:55:09.976Z,19.80
2023-05-09T06:58:12.697Z,26.27
2023-05-09T07:01:15.519Z,25.08
2023-05-09T07:04:18.074Z,23.98
2023-05-09T07:07:22.135Z,21.38
2023-05-09T07:10:24.702Z,24.63
2023-05-09T07:13:27.572Z,25.63
2023-05-09T07:16:30.471Z,23.83
2023-05-09T07:19:32.956Z,30.50
2023-05-09T07:22:37.791Z,22.13
2023-05-09T07:25:40.582Z,18.27
2023-05-09T07:28:43.113Z,16.35
2023-05-09T07:31:45.727Z,20.67
2023-05-09T07:34:48.631Z,23.55
2023-05-09T07:37:52.800Z,20.17
2023-05-09T07:40:55.555Z,18.40
2023-05-09T07:43:58.391Z,18.58
2023-05-09T07:47:02.643Z,18.38
2023-05-09T07:50:05.802Z,22.40
2023-05-09T07:53:09.905Z,16.77
2023-05-09T07:56:13.541Z,19.33
2023-05-09T07:59:16.992Z,16.73
2023-05-09T08:02:19.768Z,19.23
2023-05-09T08:05:22.294Z,15.88
2023-05-09T08:08:27.146Z,18.10
2023-05-09T08:11:29.760Z,19.17
2023-05-09T08:14:32.344Z,18.48
2023-05-09T08:17:35.145Z,19.40
2023-05-09T08:20:37.840Z,19.98
2023-05-09T08:23:41.741Z,24.50
2023-05-09T08:26:45.301Z,20.87
2023-05-09T08:29:47.859Z,19.30
2023-05-09T08:32:50.380Z,18.40
2023-05-09T08:35:52.994Z,18.67
2023-05-09T08:38:56.915Z,15.68
2023-05-09T08:42:00.506Z,20.20
2023-05-09T08:45:07.676Z,16.83
2023-05-09T08:48:10.870Z,16.40
2023-05-09T08:51:13.772Z,16.10
2023-05-09T08:54:17.791Z,16.48
2023-05-09T08:57:20.904Z,15.23
2023-05-09T09:03:26.459Z,17.42
2023-05-09T09:06:30.049Z,15.23
2023-05-09T09:09:34.709Z,17.53
2023-05-09T09:12:38.160Z,14.97
2023-05-09T09:15:42.463Z,19.33
2023-05-09T09:18:45.847Z,14.63
2023-05-09T09:21:51.267Z,15.43
2023-05-09T09:24:55.332Z,15.33
2023-05-09T09:27:57.877Z,13.35
2023-05-09T09:31:00.452Z,12.05
2023-05-09T09:34:03.484Z,16.67
2023-05-09T09:43:14.216Z,16.13
2023-05-09T09:46:18.290Z,14.90
2023-05-09T09:49:22.448Z,18.02
2023-05-09T09:52:25.934Z,14.00
2023-05-09T09:55:29.927Z,15.43
2023-05-09T09:58:32.588Z,12.52
2023-05-09T10:01:35.456Z,13.70
2023-05-09T10:07:41.313Z,12.90
2023-05-09T10:10:45.459Z,15.27
2023-05-09T10:13:48.268Z,12.25
2023-05-09T10:19:54.165Z,15.20
2023-05-09T10:22:58.658Z,16.73
2023-05-09T10:26:07.261Z,12.57
2023-05-09T10:29:11.759Z,10.80
2023-05-09T10:32:17.628Z,11.15
2023-05-09T10:35:21.825Z,11.80
2023-05-09T10:38:24.936Z,11.27
2023-05-09T10:41:29.587Z,10.15
2023-05-09T10:44:32.369Z,13.75
2023-05-09T10:50:40.302Z,23.15
2023-05-09T10:53:44.502Z,12.25
2023-05-09T10:56:48.516Z,10.85
2023-05-09T10:59:52.424Z,12.15
2023-05-09T11:03:07.358Z,11.18
2023-05-09T11:06:10.126Z,11.15
2023-05-09T11:12:32.122Z,12.68
2023-05-09T11:15:34.797Z,14.30
2023-05-09T11:18:51.138Z,13.57
2023-05-09T11:22:01.813Z,22.40
2023-05-09T11:25:05.994Z,9.60
2023-05-09T11:28:11.761Z,12.45
2023-05-09T11:31:16.136Z,7.63
2023-05-09T11:34:21.529Z,8.52
2023-05-09T11:37:24.610Z,7.43
2023-05-09T11:40:28.075Z,8.88
2023-05-09T11:43:32.221Z,6.30
2023-05-09T11:46:34.744Z,5.78
2023-05-09T11:49:37.325Z,8.43
2023-05-09T11:52:40.809Z,9.65
2023-05-09T11:55:43.384Z,4.55
2023-05-09T11:58:47.302Z,5.32
2023-05-09T12:01:49.925Z,5.55
2023-05-09T12:07:55.195Z,6.15
2023-05-09T12:11:08.920Z,2.63
2023-05-09T12:14:12.793Z,3.13
2023-05-09T12:17:15.377Z,5.15
2023-05-09T12:23:20.883Z,4.70
2023-05-09T12:26:23.635Z,5.15
2023-05-09T12:29:28.134Z,8.00
2023-05-09T12:32:32.969Z,5.35
2023-05-09T12:35:36.405Z,4.22
2023-05-09T12:38:39.156Z,6.75
2023-05-09T12:41:57.500Z,4.88
2023-05-09T12:45:06.151Z,5.90
2023-05-09T12:48:09.610Z,3.85
2023-05-09T12:51:12.283Z,3.55
2023-05-09T12:54:14.958Z,4.05
2023-05-09T12:57:24.262Z,3.45
2023-05-09T13:00:28.398Z,4.43
2023-05-09T13:03:37.700Z,8.10
2023-05-09T13:06:49.225Z,3.80
2023-05-09T13:09:57.918Z,1.83
2023-05-09T13:13:00.640Z,3.50
2023-05-09T13:16:05.995Z,2.42
2023-05-09T13:19:09.473Z,1.52
2023-05-09T13:25:16.069Z,3.85
2023-05-09T13:28:18.577Z,3.25
2023-05-09T13:31:22.761Z,1.52
2023-05-09T13:34:25.765Z,1.48
2023-05-09T13:37:28.590Z,2.15
2023-05-09T13:40:31.132Z,2.88
2023-05-09T13:43:33.848Z,1.88
2023-05-09T13:49:40.645Z,4.95
2023-05-09T13:52:43.410Z,1.75
2023-05-09T13:55:46.344Z,1.95
2023-05-09T13:58:49.017Z,1.67
2023-05-09T14:04:55.519Z,3.58
2023-05-09T14:07:58.225Z,1.50
2023-05-09T14:14:03.214Z,2.85
2023-05-09T14:17:07.101Z,4.85
2023-05-09T14:20:10.608Z,2.17
2023-05-09T14:23:13.475Z,1.50
2023-05-09T14:26:16.111Z,6.93
2023-05-09T14:32:22.691Z,1.67
2023-05-09T14:35:25.454Z,1.95
2023-05-09T14:41:31.751Z,5.10
2023-05-09T14:44:34.351Z,3.08
2023-05-09T14:47:38.431Z,2.13
2023-05-09T14:50:41.037Z,2.53
2023-05-09T14:53:43.583Z,3.53
2023-05-09T14:56:46.259Z,2.08
2023-05-09T14:59:48.840Z,0.70
2023-05-09T15:02:52.800Z,1.63
2023-05-09T15:05:55.370Z,1.43
2023-05-09T15:08:57.995Z,0.85
2023-05-09T15:12:01.866Z,1.77
2023-05-09T15:18:18.466Z,1.27
2023-05-09T15:21:21.116Z,0.68
2023-05-09T15:27:26.336Z,0.93
2023-05-09T15:30:29.106Z,0.95
2023-05-09T15:33:33.209Z,1.42
2023-05-09T15:36:35.733Z,3.22
2023-05-09T15:39:43.246Z,5.63
2023-05-09T15:42:48.153Z,0.90
2023-05-09T15:45:51.168Z,4.43
2023-05-09T15:48:56.230Z,3.33
2023-05-09T15:51:58.785Z,1.45
2023-05-09T15:55:01.565Z,2.25
2023-05-09T16:01:07.998Z,2.07
2023-05-09T16:04:13.862Z,2.25
2023-05-09T16:07:16.422Z,2.05
2023-05-09T16:10:19.023Z,2.15
2023-05-09T16:13:22.373Z,2.78
2023-05-09T16:16:25.137Z,3.13
2023-05-09T16:19:29.519Z,6.50
2023-05-09T16:22:32.144Z,3.80
2023-05-09T16:25:35.519Z,2.30
2023-05-09T16:28:40.103Z,2.23
2023-05-09T16:31:44.837Z,5.30
2023-05-09T16:34:49.177Z,2.60
2023-05-09T16:37:51.866Z,2.93
2023-05-09T16:40:54.753Z,3.60
2023-05-09T16:43:57.397Z,3.03
2023-05-09T16:47:01.046Z,2.22
2023-05-09T16:50:05.713Z,3.17
2023-05-09T16:53:08.456Z,2.23
2023-05-09T16:56:11.382Z,4.57
2023-05-09T16:59:14.208Z,3.83
2023-05-09T17:02:17.049Z,2.45
2023-05-09T17:05:21.430Z,1.30
2023-05-09T17:08:24.164Z,3.37
2023-05-09T17:11:27.235Z,3.45
2023-05-09T17:17:32.552Z,3.60
2023-05-09T17:20:36.689Z,4.07
2023-05-09T17:23:39.274Z,3.63
2023-05-09T17:26:41.805Z,2.50
2023-05-09T17:29:44.461Z,3.17
2023-05-09T17:32:47.162Z,3.90
2023-05-09T17:35:51.212Z,5.63
2023-05-09T17:38:53.908Z,2.40
2023-05-09T17:41:56.519Z,8.27
2023-05-09T17:44:59.183Z,2.40
2023-05-09T17:48:02.337Z,2.17
2023-05-09T17:54:10.372Z,6.50
2023-05-09T17:57:13.057Z,2.97
2023-05-09T18:00:16.756Z,4.60
2023-05-09T18:03:19.662Z,1.43
2023-05-09T18:06:24.017Z,1.38
2023-05-09T18:09:26.571Z,2.73
2023-05-09T18:12:31.056Z,3.13
2023-05-09T18:15:37.877Z,3.70
2023-05-09T18:18:40.631Z,4.37
2023-05-09T18:21:44.556Z,1.48
2023-05-09T18:24:47.078Z,2.97
2023-05-09T18:27:49.745Z,4.90
2023-05-09T18:30:54.484Z,3.60
2023-05-09T18:33:57.066Z,3.20
2023-05-09T18:37:00.974Z,4.63
2023-05-09T18:40:05.172Z,3.33
2023-05-09T18:43:07.928Z,4.17
2023-05-09T18:46:10.882Z,4.47
2023-05-09T18:49:13.368Z,3.88
2023-05-09T18:52:19.038Z,4.93
2023-05-09T18:55:22.305Z,2.97
2023-05-09T19:01:28.067Z,3.83
2023-05-09T19:04:30.898Z,2.55
2023-05-09T19:07:34.953Z,2.00
2023-05-09T19:10:37.984Z,1.43
2023-05-09T19:13:48.088Z,3.33
2023-05-09T19:16:51.369Z,2.17
2023-05-09T19:22:57.677Z,3.77
2023-05-09T19:26:00.268Z,2.27
2023-05-09T19:29:07.811Z,1.80
2023-05-09T19:32:10.468Z,3.47
2023-05-09T19:35:13.027Z,2.15
2023-05-09T19:38:17.099Z,6.05
2023-05-09T19:41:19.886Z,3.70
2023-05-09T19:44:22.531Z,3.30
2023-05-09T19:47:25.197Z,2.55
2023-05-09T19:50:27.742Z,2.75
2023-05-09T19:53:31.661Z,4.53
2023-05-09T19:56:34.215Z,5.07
2023-05-09T19:59:36.742Z,5.70
2023-05-09T20:02:39.874Z,1.63
2023-05-09T20:05:42.589Z,2.45
2023-05-09T20:08:47.002Z,4.07
2023-05-09T20:11:50.495Z,2.73
2023-05-09T20:14:53.164Z,3.13
2023-05-09T20:17:56.038Z,4.47
2023-05-09T20:20:58.637Z,1.98
2023-05-09T20:24:03.027Z,3.53
2023-05-09T20:27:05.614Z,5.50
2023-05-09T20:30:09.237Z,1.55
2023-05-09T20:33:11.727Z,3.63
2023-05-09T20:36:15.350Z,1.48
2023-05-09T20:39:19.425Z,2.17
2023-05-09T20:42:23.184Z,2.80
2023-05-09T20:45:26.004Z,2.27
2023-05-09T20:48:28.670Z,3.60
2023-05-09T20:51:31.531Z,1.85
2023-05-09T20:54:35.368Z,1.15
2023-05-09T20:57:37.909Z,1.53
2023-05-09T21:00:40.492Z,1.65
2023-05-09T21:03:43.223Z,1.60
2023-05-09T21:06:45.905Z,2.83
2023-05-09T21:09:50.845Z,3.42
2023-05-09T21:12:53.840Z,3.40
2023-05-09T21:15:56.341Z,1.60
2023-05-09T21:19:02.494Z,2.15
2023-05-09T21:22:05.203Z,4.07
2023-05-09T21:25:10.071Z,1.02
2023-05-09T21:28:14.369Z,1.67
2023-05-09T21:31:16.978Z,1.37
2023-05-09T21:34:19.552Z,3.08
2023-05-09T21:37:22.106Z,2.42
2023-05-09T21:40:26.009Z,2.03
2023-05-09T21:43:28.913Z,4.13
2023-05-09T21:46:32.816Z,2.30
2023-05-09T21:49:35.337Z,3.93
2023-05-09T21:52:37.927Z,3.03
2023-05-09T21:55:41.889Z,4.32
2023-05-09T21:58:44.498Z,2.50
2023-05-09T22:01:47.291Z,4.13
2023-05-09T22:04:50.295Z,1.75
2023-05-09T22:07:52.871Z,3.03
2023-05-09T22:10:56.771Z,1.92
2023-05-09T22:13:59.479Z,4.13
2023-05-09T22:17:02.062Z,4.50
2023-05-09T22:20:05.819Z,6.70
2023-05-09T22:23:08.471Z,4.10
2023-05-09T22:26:12.304Z,2.75
2023-05-09T22:29:16.482Z,2.47
2023-05-09T22:32:19.067Z,3.03
2023-05-09T22:35:21.556Z,0.82
2023-05-09T22:38:24.364Z,1.20
2023-05-09T22:41:28.495Z,2.15
2023-05-09T22:44:32.335Z,1.67
2023-05-09T22:47:35.097Z,1.40
2023-05-09T22:50:37.683Z,2.45
2023-05-09T22:53:40.210Z,1.80
2023-05-09T22:56:44.527Z,3.13
2023-05-09T22:59:47.172Z,1.67
2023-05-09T23:02:49.899Z,1.15
2023-05-09T23:05:52.820Z,2.13
2023-05-09T23:08:55.292Z,2.90
2023-05-09T23:11:59.525Z,3.63
2023-05-09T23:15:02.035Z,2.47
2023-05-09T23:18:04.948Z,2.67
2023-05-09T23:21:07.543Z,1.95
2023-05-09T23:24:10.049Z,1.52
2023-05-09T23:27:13.926Z,1.08
2023-05-09T23:30:16.793Z,2.50
2023-05-09T23:33:19.514Z,1.05
2023-05-09T23:36:22.148Z,3.40
2023-05-09T23:39:24.639Z,1.63
2023-05-09T23:42:28.835Z,1.00
2023-05-09T23:45:31.364Z,1.90
2023-05-09T23:48:33.905Z,1.98
2023-05-09T23:51:36.405Z,2.25
2023-05-09T23:54:39.780Z,2.80
